createdAt,value
2019-05-07T00:00:53.733Z,10.77
2019-05-07T00:03:23.149Z,10.80
2019-05-07T00:05:53.902Z,10.83
2019-05-07T00:08:23.551Z,10.00
2019-05-07T00:10:53.059Z,8.13
2019-05-07T00:13:22.795Z,8.43
2019-05-07T00:15:52.898Z,10.70
2019-05-07T00:18:22.934Z,7.77
2019-05-07T00:20:53.030Z,11.47
2019-05-07T00:23:23.166Z,9.67
2019-05-07T00:25:53.004Z,9.27
2019-05-07T00:28:23.140Z,8.10
2019-05-07T00:30:52.609Z,8.30
2019-05-07T00:33:22.863Z,11.20
2019-05-07T00:35:56.907Z,12.17
2019-05-07T00:38:27.959Z,8.87
2019-05-07T00:41:35.832Z,10.33
2019-05-07T00:44:06.783Z,8.60
2019-05-07T00:46:36.313Z,7.70
2019-05-07T00:49:05.732Z,7.90
2019-05-07T00:51:35.284Z,9.30
2019-05-07T00:54:05.729Z,8.43
2019-05-07T00:56:35.128Z,10.13
2019-05-07T00:59:04.644Z,8.13
2019-05-07T01:01:34.810Z,9.47
2019-05-07T01:04:04.456Z,6.80
2019-05-07T01:06:33.846Z,8.30
2019-05-07T01:09:03.786Z,10.10
2019-05-07T01:11:33.604Z,11.07
2019-05-07T01:14:03.212Z,19.53
2019-05-07T01:16:33.129Z,26.47
2019-05-07T01:19:02.587Z,18.57
2019-05-07T01:21:32.630Z,13.87
2019-05-07T01:24:03.319Z,14.13
2019-05-07T01:26:34.512Z,11.07
2019-05-07T01:29:03.990Z,9.43
2019-05-07T01:31:38.358Z,10.47
2019-05-07T01:34:09.420Z,10.40
2019-05-07T01:36:38.824Z,9.80
2019-05-07T01:39:08.560Z,8.90
2019-05-07T01:41:38.094Z,12.33
2019-05-07T01:44:07.474Z,9.90
2019-05-07T01:46:36.909Z,11.40
2019-05-07T01:49:06.303Z,9.20
2019-05-07T01:51:35.719Z,9.13
2019-05-07T01:54:05.176Z,10.47
2019-05-07T01:56:34.711Z,9.10
2019-05-07T01:59:04.270Z,8.97
2019-05-07T02:01:35.915Z,9.87
2019-05-07T02:04:06.536Z,9.60
2019-05-07T02:06:37.583Z,9.87
2019-05-07T02:09:24.639Z,10.27
2019-05-07T02:12:02.433Z,10.87
2019-05-07T02:14:33.053Z,7.87
2019-05-07T02:17:03.103Z,9.80
2019-05-07T02:19:35.235Z,9.13
2019-05-07T02:22:04.782Z,9.40
2019-05-07T02:24:36.441Z,8.77
2019-05-07T02:27:07.435Z,9.43
2019-05-07T02:29:38.235Z,10.80
2019-05-07T02:32:07.732Z,8.43
2019-05-07T02:34:37.125Z,10.43
2019-05-07T02:37:08.266Z,10.80
2019-05-07T02:39:44.163Z,13.20
2019-05-07T02:42:12.991Z,10.80
2019-05-07T02:45:04.152Z,10.93
2019-05-07T02:47:33.686Z,9.27
2019-05-07T02:50:13.070Z,10.80
2019-05-07T02:52:53.588Z,9.87
2019-05-07T02:55:39.750Z,9.40
2019-05-07T02:58:09.141Z,11.33
2019-05-07T03:00:38.723Z,9.43
2019-05-07T03:03:08.123Z,10.20
2019-05-07T03:05:37.741Z,8.90
2019-05-07T03:08:07.370Z,9.57
2019-05-07T03:10:36.784Z,8.43
2019-05-07T03:13:06.419Z,9.60
2019-05-07T03:15:36.026Z,11.07
2019-05-07T03:18:05.648Z,10.43
2019-05-07T03:20:53.245Z,10.43
2019-05-07T03:23:23.168Z,11.80
2019-05-07T03:25:57.042Z,10.27
2019-05-07T03:28:26.497Z,9.07
2019-05-07T03:31:05.892Z,10.60
2019-05-07T03:33:36.916Z,10.30
2019-05-07T03:36:08.306Z,9.37
2019-05-07T03:38:37.659Z,10.30
2019-05-07T03:41:07.113Z,10.07
2019-05-07T03:43:36.616Z,9.63
2019-05-07T03:46:07.652Z,11.43
2019-05-07T03:48:38.933Z,12.90
2019-05-07T03:51:08.341Z,11.60
2019-05-07T03:53:37.732Z,9.57
2019-05-07T03:56:07.122Z,12.53
2019-05-07T03:58:36.539Z,10.50
2019-05-07T04:01:06.030Z,8.97
2019-05-07T04:03:35.433Z,9.33
2019-05-07T04:06:05.044Z,8.93
2019-05-07T04:08:34.456Z,10.77
2019-05-07T04:11:04.246Z,9.93
2019-05-07T04:13:34.055Z,9.07
2019-05-07T04:16:04.421Z,7.67
2019-05-07T04:18:34.210Z,12.73
2019-05-07T04:21:04.250Z,11.60
2019-05-07T04:23:34.550Z,9.87
2019-05-07T04:26:05.662Z,9.17
2019-05-07T04:28:39.237Z,10.33
2019-05-07T04:31:08.644Z,12.30
2019-05-07T04:33:39.687Z,8.80
2019-05-07T04:36:22.773Z,10.20
2019-05-07T04:38:53.222Z,8.97
2019-05-07T04:41:23.467Z,10.03
2019-05-07T04:43:54.066Z,9.70
2019-05-07T04:46:24.009Z,9.00
2019-05-07T04:48:53.443Z,9.47
2019-05-07T04:51:24.489Z,8.73
2019-05-07T04:53:54.362Z,7.73
2019-05-07T04:56:24.139Z,10.60
2019-05-07T04:58:53.561Z,13.17
2019-05-07T05:01:24.622Z,13.40
2019-05-07T05:03:54.289Z,13.43
2019-05-07T05:06:24.347Z,10.87
2019-05-07T05:08:56.317Z,12.97
2019-05-07T05:11:25.114Z,14.70
2019-05-07T05:13:54.515Z,14.77
2019-05-07T05:16:27.239Z,13.90
2019-05-07T05:18:57.238Z,14.20
2019-05-07T05:21:28.302Z,13.23
2019-05-07T05:24:05.046Z,13.10
2019-05-07T05:26:34.454Z,15.83
2019-05-07T05:29:04.714Z,15.30
2019-05-07T05:31:34.124Z,13.70
2019-05-07T05:34:03.532Z,14.53
2019-05-07T05:36:33.191Z,13.50
2019-05-07T05:39:02.755Z,14.40
2019-05-07T05:41:34.052Z,12.30
2019-05-07T05:44:09.333Z,14.27
2019-05-07T05:46:38.753Z,10.57
2019-05-07T05:49:08.172Z,11.77
2019-05-07T05:51:43.020Z,12.67
2019-05-07T05:54:26.014Z,11.80
2019-05-07T05:57:02.698Z,13.97
2019-05-07T05:59:47.974Z,10.83
2019-05-07T06:02:24.804Z,10.97
2019-05-07T06:05:12.624Z,12.33
2019-05-07T06:07:43.717Z,12.30
2019-05-07T06:10:15.000Z,12.93
2019-05-07T06:12:46.026Z,14.60
2019-05-07T06:15:22.167Z,14.80
2019-05-07T06:17:55.341Z,13.70
2019-05-07T06:20:35.247Z,15.33
2019-05-07T06:23:18.264Z,16.90
2019-05-07T06:25:48.720Z,18.57
2019-05-07T06:28:18.121Z,16.17
2019-05-07T06:30:48.524Z,15.03
2019-05-07T06:33:17.979Z,17.43
2019-05-07T06:35:47.394Z,15.47
2019-05-07T06:38:16.803Z,17.07
2019-05-07T06:41:04.277Z,14.17
2019-05-07T06:43:38.196Z,13.20
2019-05-07T06:46:08.002Z,14.93
2019-05-07T06:48:42.201Z,15.80
2019-05-07T06:51:08.579Z,16.00
2019-05-07T06:53:38.003Z,15.53
2019-05-07T06:56:08.968Z,13.33
2019-05-07T06:58:43.016Z,13.47
2019-05-07T07:01:29.374Z,13.67
2019-05-07T07:04:09.375Z,12.17
2019-05-07T07:06:43.488Z,13.37
2019-05-07T07:09:17.243Z,12.93
2019-05-07T07:11:52.933Z,14.97
2019-05-07T07:14:22.795Z,14.77
2019-05-07T07:16:52.746Z,13.37
2019-05-07T07:19:23.321Z,10.73
2019-05-07T07:21:52.964Z,12.87
2019-05-07T07:24:22.417Z,11.67
2019-05-07T07:26:52.844Z,10.77
2019-05-07T07:29:23.943Z,11.53
2019-05-07T07:31:55.082Z,11.10
2019-05-07T07:34:25.555Z,14.93
2019-05-07T07:37:05.993Z,13.73
2019-05-07T07:39:32.333Z,13.37
2019-05-07T07:42:06.041Z,12.93
2019-05-07T07:44:35.439Z,11.53
2019-05-07T07:47:05.038Z,13.03
2019-05-07T07:49:34.600Z,11.97
2019-05-07T07:52:04.100Z,12.60
2019-05-07T07:54:33.509Z,14.00
2019-05-07T07:57:04.593Z,14.53
2019-05-07T07:59:42.128Z,12.03
2019-05-07T08:02:13.545Z,12.97
2019-05-07T08:04:42.945Z,14.77
2019-05-07T08:07:12.594Z,16.43
2019-05-07T08:09:42.894Z,11.30
2019-05-07T08:12:12.826Z,12.20
2019-05-07T08:14:42.929Z,10.70
2019-05-07T08:17:13.113Z,12.93
2019-05-07T08:19:43.179Z,12.30
2019-05-07T08:22:12.622Z,10.53
2019-05-07T08:24:42.724Z,10.57
2019-05-07T08:27:15.115Z,10.27
2019-05-07T08:29:43.707Z,12.07
2019-05-07T08:32:14.774Z,11.70
2019-05-07T08:34:48.238Z,9.30
2019-05-07T08:37:17.665Z,14.50
2019-05-07T08:39:47.067Z,9.27
2019-05-07T08:42:16.487Z,9.77
2019-05-07T08:45:03.053Z,10.10
2019-05-07T08:47:36.769Z,12.37
2019-05-07T08:50:07.151Z,10.10
2019-05-07T08:52:36.623Z,10.53
2019-05-07T08:55:07.887Z,8.53
2019-05-07T08:57:37.520Z,10.03
2019-05-07T09:00:07.585Z,6.57
2019-05-07T09:02:36.955Z,6.80
2019-05-07T09:05:09.236Z,9.23
2019-05-07T09:07:38.499Z,8.87
2019-05-07T09:10:08.252Z,7.10
2019-05-07T09:12:37.899Z,8.10
2019-05-07T09:15:08.360Z,7.83
2019-05-07T09:17:37.839Z,7.53
2019-05-07T09:20:09.248Z,8.03
2019-05-07T09:22:38.680Z,11.43
2019-05-07T09:25:08.636Z,7.57
2019-05-07T09:27:45.456Z,7.87
2019-05-07T09:30:34.000Z,8.30
2019-05-07T09:33:05.130Z,6.60
2019-05-07T09:35:39.819Z,9.27
2019-05-07T09:38:09.442Z,8.50
2019-05-07T09:40:38.832Z,6.13
2019-05-07T09:43:08.338Z,8.83
2019-05-07T09:45:37.740Z,7.50
2019-05-07T09:48:07.401Z,5.53
2019-05-07T09:50:36.789Z,5.30
2019-05-07T09:53:06.448Z,7.47
2019-05-07T09:55:35.848Z,5.73
2019-05-07T09:58:05.385Z,5.33
2019-05-07T10:00:35.242Z,5.13
2019-05-07T10:03:05.073Z,6.63
2019-05-07T10:05:34.566Z,5.60
2019-05-07T10:08:04.404Z,6.47
2019-05-07T10:10:33.889Z,6.53
2019-05-07T10:13:08.316Z,5.07
2019-05-07T10:15:37.941Z,7.20
2019-05-07T10:18:15.012Z,6.03
2019-05-07T10:20:44.549Z,7.40
2019-05-07T10:23:18.668Z,6.50
2019-05-07T10:25:49.026Z,7.37
2019-05-07T10:28:19.361Z,6.63
2019-05-07T10:30:48.771Z,5.17
2019-05-07T10:33:18.465Z,8.63
2019-05-07T10:35:47.895Z,7.20
2019-05-07T10:38:17.659Z,8.17
2019-05-07T10:40:47.209Z,7.23
2019-05-07T10:43:16.608Z,6.83
2019-05-07T10:45:52.056Z,5.77
2019-05-07T10:48:39.415Z,5.83
2019-05-07T10:51:08.990Z,7.03
2019-05-07T10:53:38.389Z,6.87
2019-05-07T10:56:07.810Z,5.67
2019-05-07T10:58:37.205Z,8.53
2019-05-07T11:01:06.957Z,6.80
2019-05-07T11:03:37.121Z,5.87
2019-05-07T11:06:06.546Z,5.80
2019-05-07T11:08:35.937Z,5.13
2019-05-07T11:11:05.355Z,8.20
2019-05-07T11:13:34.822Z,6.73
2019-05-07T11:16:12.612Z,6.77
2019-05-07T11:18:43.721Z,6.93
2019-05-07T11:21:13.264Z,7.50
2019-05-07T11:23:42.662Z,6.13
2019-05-07T11:26:12.080Z,5.40
2019-05-07T11:28:41.471Z,5.30
2019-05-07T11:31:12.393Z,5.37
2019-05-07T11:33:41.966Z,6.07
2019-05-07T11:36:11.391Z,6.37
2019-05-07T11:38:41.832Z,7.07
2019-05-07T11:41:12.781Z,7.07
2019-05-07T11:43:46.519Z,5.30
2019-05-07T11:46:22.195Z,6.03
2019-05-07T11:48:53.348Z,8.30
2019-05-07T11:51:24.423Z,4.13
2019-05-07T11:54:12.343Z,5.87
2019-05-07T11:56:42.243Z,6.07
2019-05-07T11:59:13.398Z,4.90
2019-05-07T12:01:48.285Z,5.00
2019-05-07T12:04:17.764Z,5.50
2019-05-07T12:06:47.295Z,6.07
2019-05-07T12:09:17.091Z,6.07
2019-05-07T12:11:46.566Z,6.13
2019-05-07T12:14:28.116Z,6.87
2019-05-07T12:16:47.127Z,4.47
2019-05-07T12:19:16.819Z,5.80
2019-05-07T12:21:46.650Z,7.80
2019-05-07T12:24:16.676Z,5.27
2019-05-07T12:26:46.219Z,8.80
2019-05-07T12:29:15.637Z,5.73
2019-05-07T12:31:46.668Z,9.40
2019-05-07T12:34:17.740Z,4.67
2019-05-07T12:36:47.253Z,6.20
2019-05-07T12:39:16.659Z,8.13
2019-05-07T12:41:46.064Z,5.83
2019-05-07T12:44:15.544Z,6.50
2019-05-07T12:46:44.946Z,7.00
2019-05-07T12:49:14.352Z,7.40
2019-05-07T12:51:54.595Z,5.57
2019-05-07T12:54:25.722Z,4.20
2019-05-07T12:56:55.124Z,8.70
2019-05-07T12:59:24.610Z,5.93
2019-05-07T13:02:17.826Z,6.60
2019-05-07T13:04:36.564Z,5.63
2019-05-07T13:07:07.684Z,6.33
2019-05-07T13:09:37.089Z,7.20
2019-05-07T13:12:06.497Z,5.73
2019-05-07T13:14:35.910Z,5.60
2019-05-07T13:17:05.367Z,7.17
2019-05-07T13:19:34.797Z,7.70
2019-05-07T13:22:04.343Z,8.30
2019-05-07T13:24:33.759Z,7.77
2019-05-07T13:27:03.390Z,9.43
2019-05-07T13:29:32.832Z,5.87
2019-05-07T13:32:03.841Z,4.50
2019-05-07T13:34:34.291Z,7.73
2019-05-07T13:37:17.295Z,6.37
2019-05-07T13:39:51.993Z,4.73
2019-05-07T13:42:38.646Z,6.27
2019-05-07T13:47:54.273Z,7.07
2019-05-07T13:50:23.812Z,7.23
2019-05-07T13:52:53.265Z,7.10
2019-05-07T13:55:22.696Z,4.27
2019-05-07T13:57:52.502Z,6.10
2019-05-07T14:00:23.883Z,6.00
2019-05-07T14:02:54.856Z,6.60
2019-05-07T14:05:24.461Z,4.63
2019-05-07T14:07:53.997Z,5.87
2019-05-07T14:10:23.496Z,3.57
2019-05-07T14:12:52.892Z,4.80
2019-05-07T14:15:23.152Z,6.80
2019-05-07T14:17:54.957Z,5.13
2019-05-07T14:20:23.960Z,5.13
2019-05-07T14:22:53.370Z,4.83
2019-05-07T14:25:24.236Z,6.23
2019-05-07T14:27:53.659Z,5.77
2019-05-07T14:30:24.544Z,4.40
2019-05-07T14:32:58.530Z,3.67
2019-05-07T14:35:38.360Z,5.40
2019-05-07T14:38:09.401Z,4.67
2019-05-07T14:40:38.821Z,5.67
2019-05-07T14:43:09.854Z,5.47
2019-05-07T14:45:41.959Z,6.03
2019-05-07T14:48:12.180Z,5.60
2019-05-07T14:50:44.831Z,5.23
2019-05-07T14:53:13.157Z,5.50
2019-05-07T14:55:42.673Z,4.83
2019-05-07T14:58:12.525Z,4.57
2019-05-07T15:00:42.865Z,5.53
2019-05-07T15:03:12.665Z,5.73
2019-05-07T15:05:42.441Z,5.23
2019-05-07T15:08:14.421Z,4.07
2019-05-07T15:10:43.123Z,4.40
2019-05-07T15:13:12.870Z,6.70
2019-05-07T15:15:42.389Z,3.97
2019-05-07T15:18:16.476Z,6.77
2019-05-07T15:20:45.977Z,4.60
2019-05-07T15:23:29.279Z,6.27
2019-05-07T15:26:01.867Z,3.70
2019-05-07T15:28:32.351Z,4.50
2019-05-07T15:31:09.298Z,4.90
2019-05-07T15:33:38.690Z,4.10
2019-05-07T15:36:08.132Z,3.53
2019-05-07T15:38:37.590Z,4.33
2019-05-07T15:41:07.231Z,3.93
2019-05-07T15:43:36.703Z,3.67
2019-05-07T15:46:06.193Z,3.87
2019-05-07T15:48:35.739Z,4.40
2019-05-07T15:51:05.165Z,5.63
2019-05-07T15:53:52.365Z,4.60
2019-05-07T15:56:22.028Z,6.43
2019-05-07T15:58:51.824Z,3.07
2019-05-07T16:01:22.158Z,6.87
2019-05-07T16:03:54.970Z,4.77
2019-05-07T16:06:22.927Z,4.23
2019-05-07T16:08:53.966Z,4.77
2019-05-07T16:11:23.590Z,6.23
2019-05-07T16:14:06.197Z,5.60
2019-05-07T16:16:37.259Z,3.60
2019-05-07T16:19:14.107Z,4.43
2019-05-07T16:21:43.532Z,5.03
2019-05-07T16:24:13.000Z,3.90
2019-05-07T16:26:42.901Z,3.37
2019-05-07T16:29:13.266Z,3.10
2019-05-07T16:31:44.229Z,3.93
2019-05-07T16:34:13.934Z,5.73
2019-05-07T16:36:43.340Z,3.40
2019-05-07T16:39:12.738Z,4.33
2019-05-07T16:41:42.449Z,6.83
2019-05-07T16:44:12.340Z,5.33
2019-05-07T16:46:42.271Z,4.57
2019-05-07T16:49:12.326Z,4.47
2019-05-07T16:51:44.568Z,5.90
2019-05-07T16:54:12.967Z,4.37
2019-05-07T16:57:03.130Z,5.77
2019-05-07T16:59:32.704Z,5.43
2019-05-07T17:02:03.779Z,5.80
2019-05-07T17:04:33.185Z,17.87
2019-05-07T17:07:04.264Z,10.90
2019-05-07T17:09:35.256Z,7.33
2019-05-07T17:12:06.616Z,10.93
2019-05-07T17:14:36.093Z,5.23
2019-05-07T17:17:05.507Z,4.90
2019-05-07T17:19:34.910Z,7.27
2019-05-07T17:22:06.409Z,5.83
2019-05-07T17:24:35.498Z,5.40
2019-05-07T17:27:04.900Z,5.90
2019-05-07T17:29:34.373Z,16.77
2019-05-07T17:32:03.769Z,7.33
2019-05-07T17:34:33.182Z,4.40
2019-05-07T17:37:02.588Z,4.33
2019-05-07T17:39:32.316Z,6.00
2019-05-07T17:42:02.528Z,5.10
2019-05-07T17:44:32.511Z,5.73
2019-05-07T17:47:02.179Z,6.53
2019-05-07T17:49:32.365Z,4.57
2019-05-07T17:52:02.951Z,6.17
2019-05-07T17:54:32.688Z,6.83
2019-05-07T17:57:02.194Z,7.63
2019-05-07T17:59:32.137Z,5.77
2019-05-07T18:02:09.287Z,4.97
2019-05-07T18:04:50.569Z,4.97
2019-05-07T18:07:11.939Z,4.40
2019-05-07T18:09:42.458Z,5.53
2019-05-07T18:12:12.193Z,6.77
2019-05-07T18:14:42.399Z,4.40
2019-05-07T18:17:13.553Z,6.83
2019-05-07T18:19:43.033Z,5.57
2019-05-07T18:22:12.847Z,5.27
2019-05-07T18:24:42.242Z,6.83
2019-05-07T18:27:13.273Z,6.10
2019-05-07T18:29:42.830Z,6.20
2019-05-07T18:32:12.522Z,5.23
2019-05-07T18:34:42.757Z,5.83
2019-05-07T18:37:12.596Z,5.07
2019-05-07T18:39:42.819Z,5.47
2019-05-07T18:42:12.736Z,6.57
2019-05-07T18:44:42.437Z,5.50
2019-05-07T18:47:12.934Z,4.20
2019-05-07T18:49:44.762Z,6.13
2019-05-07T18:52:13.558Z,3.80
2019-05-07T18:54:43.016Z,3.93
2019-05-07T18:57:12.380Z,5.50
2019-05-07T18:59:42.308Z,6.17
2019-05-07T19:02:11.809Z,5.33
2019-05-07T19:04:42.229Z,8.33
2019-05-07T19:07:13.182Z,4.17
2019-05-07T19:09:42.817Z,4.97
2019-05-07T19:12:14.094Z,4.03
2019-05-07T19:14:43.557Z,7.47
2019-05-07T19:17:12.959Z,5.13
2019-05-07T19:19:42.473Z,5.93
2019-05-07T19:22:11.863Z,4.73
2019-05-07T19:24:47.700Z,6.97
2019-05-07T19:27:12.679Z,4.90
2019-05-07T19:29:45.060Z,5.23
2019-05-07T19:32:14.367Z,4.67
2019-05-07T19:34:43.787Z,4.33
2019-05-07T19:37:13.222Z,4.70
2019-05-07T19:39:42.955Z,4.37
2019-05-07T19:42:12.501Z,5.20
2019-05-07T19:44:42.286Z,5.00
2019-05-07T19:47:12.677Z,4.13
2019-05-07T19:49:42.185Z,4.30
2019-05-07T19:52:12.474Z,6.60
2019-05-07T19:54:47.155Z,6.60
2019-05-07T19:57:15.743Z,4.77
2019-05-07T19:59:45.146Z,4.43
2019-05-07T20:02:16.196Z,5.27
2019-05-07T20:04:45.612Z,5.03
2019-05-07T20:07:15.046Z,6.93
2019-05-07T20:09:44.472Z,4.73
2019-05-07T20:12:13.893Z,6.23
2019-05-07T20:14:43.320Z,6.80
2019-05-07T20:17:12.818Z,6.13
2019-05-07T20:19:42.240Z,5.20
2019-05-07T20:22:12.784Z,6.77
2019-05-07T20:24:42.235Z,6.50
2019-05-07T20:27:12.463Z,7.07
2019-05-07T20:29:42.783Z,6.90
2019-05-07T20:32:12.435Z,6.33
2019-05-07T20:34:42.326Z,5.57
2019-05-07T20:37:12.886Z,31.10
2019-05-07T20:39:42.736Z,127.97
2019-05-07T20:42:12.477Z,111.97
2019-05-07T20:44:42.643Z,68.33
2019-05-07T20:47:12.767Z,104.63
2019-05-07T20:49:42.740Z,44.47
2019-05-07T20:52:12.348Z,44.00
2019-05-07T20:54:49.381Z,53.83
2019-05-07T20:57:23.132Z,50.37
2019-05-07T20:59:52.540Z,18.17
2019-05-07T21:02:22.842Z,8.97
2019-05-07T21:04:52.403Z,7.10
2019-05-07T21:07:22.291Z,8.63
2019-05-07T21:09:52.983Z,6.03
2019-05-07T21:12:22.774Z,8.37
2019-05-07T21:14:52.576Z,7.23
2019-05-07T21:17:22.720Z,8.10
2019-05-07T21:19:52.197Z,7.03
2019-05-07T21:22:22.605Z,8.63
2019-05-07T21:24:53.198Z,7.90
2019-05-07T21:27:22.919Z,7.50
2019-05-07T21:29:52.835Z,9.83
2019-05-07T21:32:23.095Z,7.77
2019-05-07T21:34:52.872Z,8.20
2019-05-07T21:37:22.887Z,6.77
2019-05-07T21:39:53.110Z,7.43
2019-05-07T21:42:22.982Z,7.27
2019-05-07T21:44:52.778Z,10.00
2019-05-07T21:47:22.392Z,9.33
2019-05-07T21:49:53.326Z,8.30
2019-05-07T21:52:24.549Z,7.00
2019-05-07T21:54:55.620Z,8.20
2019-05-07T21:57:41.983Z,9.23
2019-05-07T22:00:22.115Z,25.77
2019-05-07T22:02:52.618Z,23.83
2019-05-07T22:05:22.517Z,27.40
2019-05-07T22:07:54.219Z,13.93
2019-05-07T22:10:23.049Z,9.37
2019-05-07T22:12:54.658Z,7.80
2019-05-07T22:15:23.793Z,5.50
2019-05-07T22:21:16.867Z,8.73
2019-05-07T22:23:46.353Z,6.93
2019-05-07T22:26:22.272Z,7.57
2019-05-07T22:28:46.909Z,9.20
2019-05-07T22:31:34.131Z,7.00
2019-05-07T22:34:08.137Z,6.13
2019-05-07T22:36:37.711Z,8.60
2019-05-07T22:39:07.514Z,6.33
2019-05-07T22:41:36.925Z,5.70
2019-05-07T22:44:06.357Z,11.73
2019-05-07T22:46:35.766Z,16.73
2019-05-07T22:49:05.200Z,35.63
2019-05-07T22:51:34.589Z,9.93
2019-05-07T22:54:04.413Z,7.50
2019-05-07T22:56:52.486Z,8.07
2019-05-07T22:59:22.501Z,5.13
2019-05-07T23:01:55.076Z,7.00
2019-05-07T23:04:23.197Z,9.43
2019-05-07T23:06:52.938Z,6.00
2019-05-07T23:09:22.640Z,7.67
2019-05-07T23:11:52.619Z,7.20
2019-05-07T23:14:23.112Z,6.83
2019-05-07T23:16:55.297Z,6.27
2019-05-07T23:19:23.635Z,7.17
2019-05-07T23:21:53.065Z,6.90
2019-05-07T23:24:24.736Z,7.00
2019-05-07T23:26:53.978Z,6.20
2019-05-07T23:29:23.405Z,7.67
2019-05-07T23:31:55.267Z,7.10
2019-05-07T23:34:23.992Z,7.03
2019-05-07T23:36:53.634Z,8.27
2019-05-07T23:39:24.707Z,5.50
2019-05-07T23:41:55.744Z,5.53
2019-05-07T23:44:25.180Z,6.73
2019-05-07T23:46:54.571Z,6.50
2019-05-07T23:49:24.084Z,7.03
2019-05-07T23:51:53.483Z,6.73
2019-05-07T23:54:23.440Z,7.03
2019-05-07T23:57:05.405Z,8.17
2019-05-07T23:59:24.015Z,6.03
